Time;durP1;ratioP1;P1;durP2;ratioP2;P2;SDS_P1;SDS_P2;PMS_P1;PMS_P2;Temp;Humidity;BMP_temperature;BMP_pressure;BME280_temperature;BME280_humidity;BME280_pressure;Samples;Min_cycle;Max_cycle;Signal;HPM_P1;HPM_P2
2021/04/17 04:01:18;;;;;;;4.72;3.85;;;5.60;99.90;;;;;;5502234;23;20274;-70
2021/04/17 04:03:44;;;;;;;4.55;3.00;;;5.60;99.90;;;;;;4915801;29;20223;-70
2021/04/17 04:06:10;;;;;;;6.10;2.95;;;5.60;99.90;;;;;;4916552;29;20523;-71
2021/04/17 04:08:36;;;;;;;5.68;3.80;;;5.50;99.90;;;;;;4910319;29;20655;-71
2021/04/17 04:11:02;;;;;;;5.18;4.30;;;5.50;99.90;;;;;;4897353;29;20307;-70
2021/04/17 04:13:29;;;;;;;3.92;3.55;;;5.50;99.90;;;;;;4902404;29;20752;-71
2021/04/17 04:15:55;;;;;;;4.30;3.65;;;5.50;99.90;;;;;;4916059;29;20241;-70
2021/04/17 04:18:22;;;;;;;3.40;3.10;;;5.50;99.90;;;;;;4916433;29;20218;-71
2021/04/17 04:20:48;;;;;;;3.45;3.20;;;5.50;99.90;;;;;;4915779;29;20222;-70
2021/04/17 04:23:14;;;;;;;5.68;3.25;;;5.50;99.90;;;;;;4916439;29;20214;-70
2021/04/17 04:25:41;;;;;;;3.22;2.95;;;5.50;99.90;;;;;;4915736;29;20215;-71
2021/04/17 04:28:07;;;;;;;3.70;3.50;;;5.50;99.90;;;;;;4916516;29;20218;-70
2021/04/17 04:30:33;;;;;;;6.15;3.38;;;5.50;99.90;;;;;;4906552;29;20234;-71
2021/04/17 04:32:59;;;;;;;2.95;2.75;;;5.50;99.90;;;;;;4916227;29;20218;-71
2021/04/17 04:35:26;;;;;;;5.30;3.20;;;5.50;99.90;;;;;;4915816;29;20215;-70
2021/04/17 04:37:53;;;;;;;5.05;4.53;;;5.50;99.90;;;;;;4915920;29;20333;-70
2021/04/17 04:40:19;;;;;;;3.63;3.30;;;5.50;99.90;;;;;;4915198;29;20217;-70
2021/04/17 04:42:45;;;;;;;3.00;2.75;;;5.50;99.90;;;;;;4915427;29;20214;-70
2021/04/17 04:45:12;;;;;;;2.42;2.33;;;5.50;99.90;;;;;;4915350;29;20254;-70
2021/04/17 04:47:39;;;;;;;3.83;3.53;;;5.50;99.90;;;;;;4915698;29;20721;-70
2021/04/17 04:50:07;;;;;;;3.67;2.83;;;5.50;99.90;;;;;;4915443;29;20214;-70
2021/04/17 04:52:34;;;;;;;3.63;2.90;;;5.60;99.90;;;;;;4915942;29;20283;-70
2021/04/17 04:55:01;;;;;;;3.50;3.20;;;5.60;99.90;;;;;;4916661;29;20207;-70
2021/04/17 04:57:27;;;;;;;3.03;2.78;;;5.60;99.90;;;;;;4915958;29;20205;-70
2021/04/17 04:59:53;;;;;;;3.25;2.95;;;5.60;99.90;;;;;;4915379;29;20215;-71
2021/04/17 05:02:19;;;;;;;3.25;3.08;;;5.60;99.90;;;;;;4914463;29;20234;-71
2021/04/17 05:04:46;;;;;;;3.47;3.28;;;5.60;99.90;;;;;;4916261;29;20219;-71
2021/04/17 05:07:12;;;;;;;6.80;3.42;;;5.60;99.90;;;;;;4915707;29;20207;-72
2021/04/17 05:09:39;;;;;;;7.22;3.63;;;5.70;99.90;;;;;;4915451;29;20198;-72
2021/04/17 05:12:06;;;;;;;3.63;3.30;;;5.70;99.90;;;;;;4915634;29;20230;-72
2021/04/17 05:14:33;;;;;;;3.05;2.85;;;5.70;99.90;;;;;;4915693;29;20226;-70
2021/04/17 05:16:59;;;;;;;3.35;3.05;;;5.70;99.90;;;;;;4915313;29;20246;-71
2021/04/17 05:19:25;;;;;;;4.80;2.83;;;5.70;99.90;;;;;;4915217;29;20222;-70
2021/04/17 05:21:52;;;;;;;3.22;3.03;;;5.70;99.90;;;;;;4915402;29;20710;-71
2021/04/17 05:24:18;;;;;;;3.33;3.03;;;5.70;99.90;;;;;;4914658;29;20210;-72
2021/04/17 05:26:45;;;;;;;3.55;3.10;;;5.80;99.90;;;;;;4915472;29;20261;-72
2021/04/17 05:29:12;;;;;;;3.45;3.25;;;5.80;99.90;;;;;;4915103;29;20539;-71
2021/04/17 05:31:38;;;;;;;2.40;2.30;;;5.80;99.90;;;;;;4914818;29;20226;-70
2021/04/17 05:34:06;;;;;;;3.42;3.17;;;5.80;99.90;;;;;;4915465;29;20211;-71
2021/04/17 05:36:33;;;;;;;2.97;2.55;;;5.90;99.90;;;;;;4915500;29;20285;-70
2021/04/17 05:38:59;;;;;;;6.85;3.20;;;5.80;99.90;;;;;;4915852;29;20282;-71
2021/04/17 05:41:26;;;;;;;3.63;3.00;;;5.90;99.90;;;;;;4914659;29;20227;-72
2021/04/17 05:43:53;;;;;;;3.17;2.95;;;6.00;99.90;;;;;;4915452;29;20261;-71
2021/04/17 05:46:20;;;;;;;2.95;2.60;;;6.10;99.90;;;;;;4915104;29;20207;-71
2021/04/17 05:48:46;;;;;;;3.30;2.70;;;6.10;99.90;;;;;;4915088;29;20250;-71
2021/04/17 05:51:12;;;;;;;7.05;3.20;;;6.20;99.90;;;;;;4915180;29;20285;-70
2021/04/17 05:53:38;;;;;;;4.13;3.20;;;6.30;99.90;;;;;;4917815;29;20202;-70
2021/04/17 05:56:05;;;;;;;3.33;3.13;;;6.30;99.90;;;;;;4927587;29;20262;-72
2021/04/17 05:58:32;;;;;;;4.97;2.75;;;6.40;99.90;;;;;;4929997;29;20290;-71
2021/04/17 06:00:59;;;;;;;3.20;3.00;;;6.60;99.90;;;;;;4919784;29;20242;-72
2021/04/17 06:03:27;;;;;;;2.53;2.42;;;6.80;99.90;;;;;;4918061;29;20206;-71
2021/04/17 06:05:53;;;;;;;4.32;4.03;;;7.00;99.90;;;;;;4913617;29;20213;-72
2021/04/17 06:08:20;;;;;;;3.78;3.58;;;7.10;99.90;;;;;;4907513;29;20214;-70
2021/04/17 06:10:46;;;;;;;6.30;3.88;;;7.20;99.90;;;;;;4915441;29;20298;-70
2021/04/17 06:13:12;;;;;;;3.30;3.10;;;7.20;99.90;;;;;;4918696;29;20214;-71
2021/04/17 06:15:38;;;;;;;3.47;3.28;;;7.20;99.90;;;;;;4916915;29;20254;-70
2021/04/17 06:18:06;;;;;;;3.88;3.53;;;7.30;99.90;;;;;;4917997;29;20241;-71
2021/04/17 06:20:32;;;;;;;3.15;2.95;;;7.30;99.90;;;;;;4916798;29;20313;-71
2021/04/17 06:22:58;;;;;;;4.80;3.67;;;7.30;99.90;;;;;;4905451;29;20238;-70
2021/04/17 06:25:24;;;;;;;3.20;3.00;;;7.30;99.90;;;;;;4898317;29;20214;-71
2021/04/17 06:27:50;;;;;;;4.05;3.65;;;7.40;99.90;;;;;;4916526;29;20281;-70
2021/04/17 06:30:17;;;;;;;4.60;4.20;;;7.40;99.90;;;;;;4916920;29;20215;-70
2021/04/17 06:32:44;;;;;;;4.22;3.47;;;7.40;99.90;;;;;;4917303;29;20274;-71
2021/04/17 06:35:12;;;;;;;5.65;3.75;;;7.40;99.90;;;;;;4917552;29;20207;-70
2021/04/17 06:37:38;;;;;;;6.97;3.65;;;7.50;99.90;;;;;;4917023;29;20261;-71
2021/04/17 06:40:06;;;;;;;7.00;3.42;;;7.70;99.90;;;;;;4917268;29;20299;-71
2021/04/17 06:42:35;;;;;;;3.08;2.88;;;7.70;99.90;;;;;;4917240;29;20568;-71
2021/04/17 06:45:03;;;;;;;4.28;3.20;;;7.70;99.90;;;;;;4917886;29;20210;-71
2021/04/17 06:47:29;;;;;;;5.47;4.00;;;7.70;99.90;;;;;;4916716;29;20207;-71
2021/04/17 06:49:57;;;;;;;3.75;3.47;;;7.70;99.90;;;;;;4917522;29;20293;-71
2021/04/17 06:52:26;;;;;;;4.25;3.10;;;7.80;99.90;;;;;;4917036;29;20277;-72
2021/04/17 06:54:53;;;;;;;6.82;3.72;;;8.00;99.90;;;;;;4917474;29;20203;-72
2021/04/17 06:57:20;;;;;;;3.80;3.35;;;8.10;99.90;;;;;;4917179;29;20398;-72
2021/04/17 06:59:46;;;;;;;3.55;3.35;;;8.30;99.90;;;;;;4916985;29;20723;-72
2021/04/17 07:02:16;;;;;;;4.90;3.80;;;8.40;99.90;;;;;;4916765;29;20253;-72
2021/04/17 07:04:43;;;;;;;3.90;3.47;;;8.50;99.90;;;;;;4917443;29;20210;-72
2021/04/17 07:07:09;;;;;;;3.92;3.63;;;8.50;99.90;;;;;;4917535;29;20214;-72
2021/04/17 07:09:36;;;;;;;3.85;3.55;;;8.70;99.90;;;;;;4917737;29;20206;-72
2021/04/17 07:12:03;;;;;;;4.28;3.40;;;8.70;99.90;;;;;;4917279;29;20222;-72
2021/04/17 07:14:41;;;;;;;4.85;3.78;;;8.70;99.90;;;;;;4913555;29;20206;-72
2021/04/17 07:17:08;;;;;;;3.70;3.00;;;8.60;99.90;;;;;;4907862;29;20474;-73
2021/04/17 07:20:04;;;;;;;4.30;3.90;;;8.60;99.90;;;;;;4914259;29;20227;-72
2021/04/17 07:22:32;;;;;;;4.13;3.75;;;8.60;99.90;;;;;;4857771;29;20232;-72
2021/04/17 07:25:16;;;;;;;3.55;3.28;;;8.50;99.90;;;;;;4902505;29;20641;-71
2021/04/17 07:27:43;;;;;;;3.90;3.60;;;8.40;99.90;;;;;;4916301;29;20765;-71
2021/04/17 07:30:27;;;;;;;4.07;3.67;;;8.40;99.90;;;;;;4916135;29;20207;-70
2021/04/17 07:33:19;;;;;;;3.72;3.42;;;8.40;99.90;;;;;;4915346;29;20222;-70
2021/04/17 07:35:47;;;;;;;3.20;3.00;;;8.40;99.90;;;;;;4903214;29;20234;-70
2021/04/17 07:38:15;;;;;;;3.80;3.45;;;8.50;99.90;;;;;;4914961;29;20675;-70
2021/04/17 07:40:45;;;;;;;3.97;3.67;;;8.70;99.90;;;;;;4915056;29;20230;-70
2021/04/17 07:43:11;;;;;;;3.55;3.25;;;8.70;99.90;;;;;;4915088;29;20218;-70
2021/04/17 07:45:40;;;;;;;6.43;3.38;;;8.80;99.90;;;;;;4916020;29;20651;-72
2021/04/17 07:48:25;;;;;;;3.15;2.95;;;8.80;99.90;;;;;;4914777;29;20202;-70
2021/04/17 07:50:52;;;;;;;3.90;3.28;;;8.80;99.90;;;;;;4912453;29;20242;-70
2021/04/17 07:53:25;;;;;;;3.67;3.40;;;8.70;99.90;;;;;;4915171;29;20207;-71
2021/04/17 07:55:53;;;;;;;4.85;3.90;;;8.80;99.90;;;;;;4914189;29;20217;-70
2021/04/17 07:58:19;;;;;;;2.85;2.75;;;8.80;99.90;;;;;;4915153;29;20234;-70
2021/04/17 08:00:46;;;;;;;4.97;3.50;;;8.90;99.90;;;;;;4915577;29;20682;-71
2021/04/17 08:03:16;;;;;;;3.80;3.50;;;8.90;99.90;;;;;;4915160;29;20210;-70
2021/04/17 08:05:42;;;;;;;3.33;2.88;;;8.90;99.90;;;;;;4915949;29;20209;-72
2021/04/17 08:08:09;;;;;;;5.57;3.20;;;9.00;99.90;;;;;;4915424;29;20218;-71
2021/04/17 08:10:35;;;;;;;3.38;3.15;;;9.10;99.90;;;;;;4916022;29;20718;-71
2021/04/17 08:13:07;;;;;;;3.97;3.55;;;9.20;99.90;;;;;;4915100;29;20226;-70
2021/04/17 08:15:35;;;;;;;4.93;4.15;;;9.20;99.90;;;;;;4914371;29;20196;-71
2021/04/17 08:18:03;;;;;;;3.20;2.83;;;9.30;99.90;;;;;;4913473;29;20236;-71
2021/04/17 08:20:29;;;;;;;5.38;3.40;;;9.50;99.90;;;;;;4915337;29;20297;-72
2021/04/17 08:22:56;;;;;;;3.08;2.90;;;9.60;99.90;;;;;;4914891;29;20221;-71
2021/04/17 08:25:24;;;;;;;2.97;2.75;;;9.70;99.90;;;;;;4915153;29;20321;-71
2021/04/17 08:27:51;;;;;;;3.35;3.15;;;9.70;99.90;;;;;;4915540;29;20609;-71
2021/04/17 08:30:23;;;;;;;3.22;2.97;;;9.80;99.90;;;;;;4914829;29;20211;-71
2021/04/17 08:32:50;;;;;;;2.90;2.35;;;9.90;99.90;;;;;;4914705;29;20714;-71
2021/04/17 08:35:18;;;;;;;2.78;2.58;;;9.90;99.90;;;;;;4916636;29;20207;-71
2021/04/17 08:38:07;;;;;;;3.25;2.55;;;10.00;99.90;;;;;;4913645;29;20604;-71
2021/04/17 08:40:45;;;;;;;2.55;2.45;;;10.00;99.90;;;;;;4907335;29;20564;-71
2021/04/17 08:43:35;;;;;;;4.30;2.65;;;10.20;99.90;;;;;;4914703;29;20245;-71
2021/04/17 08:46:20;;;;;;;3.22;3.03;;;10.20;99.90;;;;;;4913651;29;20207;-72
2021/04/17 08:48:49;;;;;;;2.35;2.15;;;10.20;99.90;;;;;;4913111;29;20207;-72
2021/04/17 08:51:28;;;;;;;1.58;1.50;;;10.20;99.90;;;;;;4910821;29;20231;-71
2021/04/17 08:54:15;;;;;;;1.77;1.77;;;10.40;99.90;;;;;;4914476;29;20273;-71
2021/04/17 08:57:11;;;;;;;1.70;1.60;;;10.40;99.90;;;;;;4907490;29;20209;-72
2021/04/17 08:59:38;;;;;;;1.58;1.48;;;10.40;99.90;;;;;;4914155;29;20230;-71
2021/04/17 09:02:07;;;;;;;1.77;1.67;;;10.60;99.90;;;;;;4914332;29;20323;-70
2021/04/17 09:04:37;;;;;;;1.70;1.70;;;10.60;99.90;;;;;;4915307;29;20295;-71
2021/04/17 09:07:15;;;;;;;1.88;1.67;;;10.60;99.90;;;;;;4914667;29;20293;-71
2021/04/17 09:09:41;;;;;;;1.63;1.55;;;10.70;99.90;;;;;;4914771;29;20195;-72
2021/04/17 09:12:27;;;;;;;1.92;1.83;;;10.80;99.90;;;;;;4915176;29;20286;-71
2021/04/17 09:15:05;;;;;;;2.35;1.65;;;10.90;99.00;;;;;;4912775;29;20289;-71
2021/04/17 09:17:37;;;;;;;1.50;1.48;;;11.00;98.90;;;;;;4914698;29;20238;-72
2021/04/17 09:20:05;;;;;;;1.90;1.90;;;11.10;98.70;;;;;;4912819;29;20670;-71
2021/04/17 09:22:48;;;;;;;1.45;1.23;;;11.20;98.10;;;;;;4914023;29;20660;-72
2021/04/17 09:25:31;;;;;;;1.40;1.30;;;11.30;97.50;;;;;;4914524;29;20214;-71
2021/04/17 09:27:57;;;;;;;2.05;0.98;;;11.40;96.90;;;;;;4906163;29;20623;-71
2021/04/17 09:30:23;;;;;;;3.00;1.50;;;11.30;95.80;;;;;;4917461;29;20209;-71
2021/04/17 09:32:52;;;;;;;3.22;2.97;;;11.50;96.60;;;;;;4918035;29;20206;-71
2021/04/17 09:35:20;;;;;;;1.77;1.60;;;11.60;96.10;;;;;;4918021;29;20651;-70
2021/04/17 09:37:49;;;;;;;1.80;1.80;;;11.80;96.30;;;;;;4917744;29;20705;-71
2021/04/17 09:40:15;;;;;;;1.70;1.60;;;11.90;96.20;;;;;;4918194;29;20206;-72
2021/04/17 09:42:42;;;;;;;3.33;2.17;;;12.00;95.80;;;;;;4918146;29;20635;-72
2021/04/17 09:45:10;;;;;;;5.63;2.10;;;12.00;95.90;;;;;;4917663;29;20214;-71
2021/04/17 09:47:53;;;;;;;1.38;1.38;;;12.10;96.00;;;;;;4916941;29;20746;-69
2021/04/17 09:50:26;;;;;;;1.50;1.50;;;12.30;95.60;;;;;;4917021;29;20221;-71
2021/04/17 09:52:52;;;;;;;1.75;1.65;;;12.20;95.60;;;;;;4917522;29;20213;-70
2021/04/17 09:55:19;;;;;;;1.85;1.75;;;12.40;95.70;;;;;;4917549;29;20211;-72
2021/04/17 09:57:46;;;;;;;2.00;1.80;;;12.40;95.20;;;;;;4917442;29;20215;-71
2021/04/17 10:00:13;;;;;;;3.25;1.92;;;12.30;94.70;;;;;;4917130;29;20226;-70
2021/04/17 10:02:42;;;;;;;1.77;1.67;;;12.40;95.80;;;;;;4917232;29;20241;-71
2021/04/17 10:05:11;;;;;;;1.90;1.80;;;12.50;95.10;;;;;;4918008;29;20207;-71
2021/04/17 10:07:45;;;;;;;2.83;2.70;;;12.40;95.40;;;;;;4917348;29;20675;-72
2021/04/17 10:10:12;;;;;;;3.30;3.10;;;12.50;95.50;;;;;;4917416;29;20628;-72
2021/04/17 10:12:48;;;;;;;4.28;3.88;;;12.60;96.30;;;;;;4917205;29;20493;-72
2021/04/17 10:15:16;;;;;;;3.90;2.33;;;12.80;95.00;;;;;;4917273;29;20217;-72
2021/04/17 10:17:43;;;;;;;3.30;3.08;;;12.60;94.50;;;;;;4916539;29;20470;-72
2021/04/17 10:20:11;;;;;;;3.17;2.97;;;12.50;94.60;;;;;;4917379;29;20588;-72
2021/04/17 10:22:37;;;;;;;2.65;2.40;;;12.50;95.00;;;;;;4917314;29;20474;-71
2021/04/17 10:25:07;;;;;;;3.10;2.88;;;12.60;95.40;;;;;;4918091;29;20210;-71
2021/04/17 10:27:35;;;;;;;2.37;2.33;;;12.80;95.00;;;;;;4917531;29;20214;-70
2021/04/17 10:30:02;;;;;;;1.93;1.90;;;12.90;94.50;;;;;;4917391;29;20609;-71
2021/04/17 10:32:30;;;;;;;3.33;2.13;;;12.80;93.80;;;;;;4916642;29;20629;-71
2021/04/17 10:35:06;;;;;;;2.60;2.50;;;12.90;94.00;;;;;;4917863;29;20492;-71
2021/04/17 10:37:40;;;;;;;2.60;2.50;;;13.10;93.40;;;;;;4917779;29;20217;-72
2021/04/17 10:40:09;;;;;;;1.37;1.37;;;13.10;92.80;;;;;;4916962;29;20550;-72
2021/04/17 10:42:47;;;;;;;1.90;1.80;;;12.90;92.50;;;;;;4916374;29;20475;-71
2021/04/17 10:45:15;;;;;;;1.80;1.80;;;12.90;92.70;;;;;;4918528;29;20253;-71
2021/04/17 10:47:41;;;;;;;2.35;2.35;;;12.90;92.60;;;;;;4917457;29;20258;-71
2021/04/17 10:50:19;;;;;;;3.28;2.00;;;13.00;92.60;;;;;;4918722;29;20214;-71
2021/04/17 10:52:58;;;;;;;3.53;2.07;;;13.20;93.00;;;;;;4918019;29;20237;-71
2021/04/17 10:55:33;;;;;;;2.20;2.10;;;13.40;92.30;;;;;;4918582;29;20469;-72
2021/04/17 10:58:00;;;;;;;1.87;1.77;;;13.60;92.20;;;;;;4918132;29;20919;-71
2021/04/17 11:00:31;;;;;;;1.53;1.53;;;13.80;92.00;;;;;;4919593;29;21178;-72
2021/04/17 11:02:58;;;;;;;2.37;2.17;;;13.90;91.60;;;;;;4917419;29;20466;-72
2021/04/17 11:05:30;;;;;;;1.90;1.80;;;13.80;91.70;;;;;;4918928;29;20466;-72
2021/04/17 11:08:01;;;;;;;2.13;2.03;;;13.90;91.70;;;;;;4918888;29;20557;-72
2021/04/17 11:10:30;;;;;;;1.90;1.90;;;13.90;91.30;;;;;;4918609;29;20487;-72
2021/04/17 11:12:57;;;;;;;1.80;1.70;;;13.80;91.60;;;;;;4917586;29;20467;-71
2021/04/17 11:15:26;;;;;;;1.83;1.73;;;13.80;91.40;;;;;;4918360;29;20833;-72
2021/04/17 11:18:20;;;;;;;1.57;1.50;;;13.90;91.60;;;;;;4917369;29;20478;-71
2021/04/17 11:20:53;;;;;;;1.90;1.80;;;13.90;91.30;;;;;;4917554;29;20482;-70
2021/04/17 11:23:29;;;;;;;1.50;1.50;;;13.80;91.40;;;;;;4917230;29;20478;-72
2021/04/17 11:25:56;;;;;;;2.73;2.00;;;13.80;92.30;;;;;;4917563;29;20470;-72
2021/04/17 11:28:23;;;;;;;2.00;1.60;;;14.10;91.90;;;;;;4917275;29;20462;-71
2021/04/17 11:30:50;;;;;;;2.43;2.10;;;14.00;91.00;;;;;;4917552;29;20509;-71
2021/04/17 11:33:16;;;;;;;1.93;1.83;;;13.90;91.00;;;;;;4916747;29;20892;-72
2021/04/17 11:35:42;;;;;;;1.63;1.53;;;13.80;91.40;;;;;;4917849;29;20523;-71
2021/04/17 11:38:08;;;;;;;2.30;1.70;;;13.90;90.90;;;;;;4917314;29;20475;-71
2021/04/17 11:40:35;;;;;;;1.70;1.70;;;13.90;91.10;;;;;;4917042;29;20493;-72
2021/04/17 11:43:01;;;;;;;1.80;1.70;;;13.90;91.20;;;;;;4917083;29;20470;-72
2021/04/17 11:45:28;;;;;;;1.70;1.60;;;14.00;90.90;;;;;;4917542;29;20494;-71
2021/04/17 11:47:54;;;;;;;3.50;1.57;;;14.00;90.60;;;;;;4916637;29;20493;-71
2021/04/17 11:50:21;;;;;;;2.57;1.47;;;13.90;90.50;;;;;;4916848;29;20479;-71
2021/04/17 11:52:47;;;;;;;2.17;1.73;;;13.90;90.70;;;;;;4917153;29;20471;-71
2021/04/17 11:55:13;;;;;;;1.40;1.40;;;14.10;90.80;;;;;;4917087;29;20466;-71
2021/04/17 11:57:39;;;;;;;2.17;2.07;;;14.10;90.40;;;;;;4916925;29;20529;-71
2021/04/17 12:00:07;;;;;;;2.90;1.90;;;14.20;90.90;;;;;;4916469;29;20509;-71
2021/04/17 12:02:34;;;;;;;2.10;1.40;;;14.30;91.10;;;;;;4915283;29;20476;-71
2021/04/17 12:05:00;;;;;;;1.70;1.60;;;14.40;90.60;;;;;;4915987;29;20942;-71
2021/04/17 12:07:27;;;;;;;4.07;1.63;;;14.20;90.20;;;;;;4916042;29;20469;-71
2021/04/17 12:09:53;;;;;;;2.47;2.27;;;14.30;91.00;;;;;;4915814;29;20462;-72
2021/04/17 12:12:20;;;;;;;2.33;2.23;;;14.30;90.60;;;;;;4915307;29;20486;-71
2021/04/17 12:14:46;;;;;;;2.10;1.30;;;14.20;91.10;;;;;;4915663;29;20845;-70
2021/04/17 12:17:12;;;;;;;4.53;2.20;;;14.20;91.20;;;;;;4914734;29;20470;-70
2021/04/17 12:19:39;;;;;;;4.40;2.23;;;14.30;91.00;;;;;;4915693;29;20644;-71
2021/04/17 12:22:05;;;;;;;2.50;2.30;;;14.20;91.10;;;;;;4915592;29;21190;-71
2021/04/17 12:24:31;;;;;;;1.80;1.77;;;14.20;90.70;;;;;;4915857;29;20467;-71
2021/04/17 12:26:58;;;;;;;1.30;1.30;;;14.20;91.50;;;;;;4915817;29;20565;-69
2021/04/17 12:29:24;;;;;;;1.30;1.20;;;14.10;91.10;;;;;;4915408;29;20458;-70
2021/04/17 12:31:50;;;;;;;2.10;2.00;;;13.90;91.20;;;;;;4915391;29;20501;-70
2021/04/17 12:34:16;;;;;;;1.63;1.63;;;13.90;91.60;;;;;;4916309;29;20527;-71
2021/04/17 12:36:43;;;;;;;2.60;2.43;;;14.00;92.30;;;;;;4915840;29;20496;-69
2021/04/17 12:39:09;;;;;;;2.33;2.23;;;14.20;92.20;;;;;;4914869;29;21042;-71
2021/04/17 12:41:36;;;;;;;2.93;2.00;;;14.30;92.20;;;;;;4915507;29;20490;-70
2021/04/17 12:44:03;;;;;;;3.27;2.30;;;14.40;92.20;;;;;;4915500;29;20467;-71
2021/04/17 12:46:29;;;;;;;2.50;2.30;;;14.30;91.90;;;;;;4916438;29;20471;-71
2021/04/17 12:48:55;;;;;;;2.60;2.40;;;14.30;92.00;;;;;;4920822;29;20513;-71
2021/04/17 12:51:21;;;;;;;2.47;2.27;;;14.20;92.00;;;;;;4920715;29;20497;-70
2021/04/17 12:53:48;;;;;;;3.13;2.00;;;14.10;92.00;;;;;;4919568;29;20497;-71
2021/04/17 12:56:14;;;;;;;3.00;2.73;;;14.00;92.40;;;;;;4919543;29;20959;-72
2021/04/17 12:58:40;;;;;;;3.30;3.10;;;14.00;92.60;;;;;;4917681;29;20576;-70
2021/04/17 13:01:07;;;;;;;3.70;3.50;;;14.00;92.70;;;;;;4914732;29;20527;-70
2021/04/17 13:03:34;;;;;;;4.93;2.70;;;14.00;93.50;;;;;;4914117;29;20482;-68
2021/04/17 13:06:00;;;;;;;3.33;2.20;;;13.90;93.60;;;;;;4915460;29;20943;-70
2021/04/17 13:08:28;;;;;;;3.33;3.13;;;13.90;93.80;;;;;;4914855;29;20467;-69
2021/04/17 13:10:55;;;;;;;3.00;2.80;;;13.80;93.60;;;;;;4915698;29;20614;-69
2021/04/17 13:13:21;;;;;;;2.97;2.67;;;13.90;93.80;;;;;;4913875;29;20459;-69
2021/04/17 13:15:47;;;;;;;4.00;3.60;;;13.90;93.80;;;;;;4910701;29;20475;-69
2021/04/17 13:18:14;;;;;;;2.77;2.57;;;14.00;95.50;;;;;;4913476;29;20466;-69
2021/04/17 13:20:41;;;;;;;2.40;2.30;;;14.10;95.00;;;;;;4914388;29;20509;-69
2021/04/17 13:23:08;;;;;;;2.87;2.50;;;14.20;94.50;;;;;;4914500;29;20891;-69
2021/04/17 13:25:35;;;;;;;2.43;2.33;;;14.30;94.30;;;;;;4910985;29;20470;-69
2021/04/17 13:28:03;;;;;;;3.50;3.27;;;14.30;93.90;;;;;;4914746;29;20466;-69
2021/04/17 13:30:30;;;;;;;2.50;2.30;;;14.40;94.20;;;;;;4914783;29;20489;-69
2021/04/17 13:32:56;;;;;;;2.60;2.50;;;14.60;94.10;;;;;;4912201;29;20486;-69
2021/04/17 13:35:22;;;;;;;2.63;2.53;;;14.60;94.00;;;;;;4902695;29;20967;-69
2021/04/17 13:37:48;;;;;;;3.43;3.27;;;14.70;94.10;;;;;;4910745;29;20466;-69
2021/04/17 13:40:15;;;;;;;4.13;3.83;;;14.70;93.80;;;;;;4912636;29;20497;-70
2021/04/17 13:42:41;;;;;;;3.03;2.93;;;14.60;93.80;;;;;;4911823;29;20499;-68
2021/04/17 13:45:09;;;;;;;2.83;2.73;;;14.70;94.40;;;;;;4914643;29;20498;-69
2021/04/17 13:47:35;;;;;;;3.97;3.70;;;14.80;94.10;;;;;;4911703;29;20792;-69
2021/04/17 13:50:02;;;;;;;6.47;5.17;;;14.80;94.10;;;;;;4912867;29;20459;-69
2021/04/17 13:52:28;;;;;;;2.60;2.50;;;14.80;93.90;;;;;;4907407;29;20499;-68
2021/04/17 13:54:54;;;;;;;3.70;3.40;;;14.90;94.30;;;;;;4913224;29;20470;-69
2021/04/17 13:57:20;;;;;;;4.20;3.07;;;15.00;94.10;;;;;;4914698;29;20462;-69
2021/04/17 13:59:47;;;;;;;3.70;3.50;;;15.00;94.50;;;;;;4914019;29;20586;-69
2021/04/17 14:02:14;;;;;;;3.07;2.87;;;14.70;94.60;;;;;;4911552;29;20506;-69
2021/04/17 14:04:41;;;;;;;4.30;4.00;;;14.60;94.50;;;;;;4914034;29;20558;-67
2021/04/17 14:07:08;;;;;;;3.67;3.43;;;14.50;94.90;;;;;;4911872;29;20558;-68
2021/04/17 14:09:34;;;;;;;3.80;3.60;;;14.40;95.10;;;;;;4913423;29;20900;-69
2021/04/17 14:12:00;;;;;;;3.43;3.17;;;14.40;95.70;;;;;;4913104;29;20493;-69
2021/04/17 14:14:26;;;;;;;4.83;3.03;;;14.50;96.10;;;;;;4911753;29;20478;-69
2021/04/17 14:16:53;;;;;;;4.23;3.37;;;14.50;95.70;;;;;;4914809;29;20474;-69
2021/04/17 14:19:21;;;;;;;3.00;2.80;;;14.70;95.40;;;;;;4916868;29;20498;-70
2021/04/17 14:21:48;;;;;;;3.63;3.30;;;14.80;95.20;;;;;;4916742;29;20920;-69
2021/04/17 14:24:14;;;;;;;4.23;3.40;;;14.80;95.30;;;;;;4913310;29;20506;-69
2021/04/17 14:26:40;;;;;;;4.00;3.70;;;14.80;95.40;;;;;;4916432;29;20478;-69
2021/04/17 14:29:06;;;;;;;2.80;2.70;;;14.90;95.10;;;;;;4916568;29;20518;-69
2021/04/17 14:31:33;;;;;;;3.27;2.93;;;14.90;95.10;;;;;;4916275;29;20514;-68
2021/04/17 14:33:59;;;;;;;4.97;3.20;;;14.90;95.30;;;;;;4917527;29;20809;-68
2021/04/17 14:36:26;;;;;;;4.03;3.73;;;14.80;95.40;;;;;;4915739;29;20469;-69
2021/04/17 14:38:53;;;;;;;3.87;3.60;;;14.80;95.30;;;;;;4914663;29;20946;-68
2021/04/17 14:41:19;;;;;;;5.37;3.90;;;14.80;95.50;;;;;;4914244;29;21033;-72
2021/04/17 14:43:45;;;;;;;4.10;3.70;;;14.90;95.60;;;;;;4917414;29;20466;-69
2021/04/17 14:46:11;;;;;;;3.77;3.50;;;14.90;95.70;;;;;;4915285;29;20486;-69
2021/04/17 14:48:38;;;;;;;2.67;2.63;;;14.90;95.80;;;;;;4911895;29;20506;-69
2021/04/17 14:51:05;;;;;;;3.43;3.23;;;15.00;95.70;;;;;;4914995;29;21042;-69
2021/04/17 14:53:32;;;;;;;4.23;3.93;;;14.90;95.60;;;;;;4910179;29;20478;-68
2021/04/17 14:55:59;;;;;;;4.00;3.80;;;14.70;95.40;;;;;;4916769;29;20466;-69
2021/04/17 14:58:26;;;;;;;4.43;4.13;;;14.60;95.90;;;;;;4914658;29;20463;-70
2021/04/17 15:00:52;;;;;;;4.13;3.87;;;14.60;95.90;;;;;;4913485;29;20497;-69
2021/04/17 15:03:18;;;;;;;4.20;3.80;;;14.70;96.60;;;;;;4912389;29;20475;-69
2021/04/17 15:05:44;;;;;;;4.70;4.40;;;14.70;96.30;;;;;;4912672;29;20543;-69
2021/04/17 15:08:11;;;;;;;4.03;3.63;;;14.70;96.20;;;;;;4911963;29;20497;-69
2021/04/17 15:10:38;;;;;;;4.30;3.90;;;14.70;96.70;;;;;;4911361;29;20501;-68
2021/04/17 15:13:04;;;;;;;3.97;3.50;;;14.80;96.30;;;;;;4914855;29;20505;-69
2021/04/17 15:15:30;;;;;;;5.97;4.87;;;14.80;96.30;;;;;;4914409;29;20510;-69
2021/04/17 15:17:57;;;;;;;4.13;3.73;;;14.80;96.40;;;;;;4915242;29;20462;-69
2021/04/17 15:20:23;;;;;;;4.77;4.37;;;14.60;96.20;;;;;;4916068;29;20522;-70
2021/04/17 15:22:49;;;;;;;4.77;4.37;;;14.60;96.60;;;;;;4915990;29;21110;-69
2021/04/17 15:25:16;;;;;;;3.63;3.53;;;14.70;96.70;;;;;;4916329;29;20886;-69
2021/04/17 15:27:43;;;;;;;3.63;3.33;;;14.70;96.50;;;;;;4914435;29;20934;-69
2021/04/17 15:30:10;;;;;;;4.27;4.00;;;14.60;96.20;;;;;;4917668;29;20836;-70
2021/04/17 15:32:40;;;;;;;4.27;4.07;;;14.60;96.70;;;;;;4914325;29;20471;-69
2021/04/17 15:35:08;;;;;;;3.70;3.40;;;14.60;96.70;;;;;;4916953;29;20490;-70
2021/04/17 15:37:34;;;;;;;3.77;3.57;;;14.70;96.80;;;;;;4914428;29;20474;-69
2021/04/17 15:40:00;;;;;;;4.63;4.27;;;14.70;96.70;;;;;;4916102;29;20486;-67
2021/04/17 15:42:27;;;;;;;4.63;4.27;;;14.70;96.70;;;;;;4908965;29;20487;-69
2021/04/17 15:44:55;;;;;;;3.40;3.30;;;14.70;97.10;;;;;;4905126;29;20554;-70
2021/04/17 15:47:21;;;;;;;4.30;3.40;;;14.60;97.10;;;;;;4911761;29;20497;-68
2021/04/17 15:49:47;;;;;;;3.50;3.00;;;14.60;97.10;;;;;;4909029;29;20490;-69
2021/04/17 15:52:13;;;;;;;4.40;4.10;;;14.60;97.20;;;;;;4914988;29;20501;-69
2021/04/17 15:54:39;;;;;;;3.60;3.40;;;14.50;97.70;;;;;;4915221;29;20987;-68
2021/04/17 15:57:10;;;;;;;4.43;4.03;;;14.60;97.40;;;;;;4915714;29;20475;-69
2021/04/17 16:16:03;;;;;;;4.43;4.20;;;14.00;98.70;;;;;;4914795;29;20518;-69
2021/04/17 16:18:30;;;;;;;4.18;3.78;;;13.90;98.80;;;;;;4913517;29;20484;-69
2021/04/17 16:20:57;;;;;;;4.80;4.40;;;13.80;98.80;;;;;;4915782;29;20548;-68
2021/04/17 16:23:23;;;;;;;7.20;3.07;;;13.80;99.10;;;;;;4912668;29;20498;-69
2021/04/17 16:25:50;;;;;;;4.35;3.40;;;13.70;99.40;;;;;;4914691;29;20482;-68
2021/04/17 16:28:16;;;;;;;4.70;4.40;;;13.60;99.40;;;;;;4914154;29;20241;-68
2021/04/17 16:30:43;;;;;;;4.47;3.97;;;13.50;99.60;;;;;;4913833;29;20316;-68
2021/04/17 16:33:10;;;;;;;7.78;4.60;;;13.50;99.90;;;;;;4913863;29;20238;-69
2021/04/17 16:35:37;;;;;;;3.38;3.22;;;13.40;99.90;;;;;;4903320;29;20221;-68
2021/04/17 16:38:03;;;;;;;4.10;3.40;;;13.40;99.90;;;;;;4913420;29;20663;-68
2021/04/17 16:40:30;;;;;;;2.35;2.30;;;13.30;99.90;;;;;;4914242;29;20235;-68
2021/04/17 16:42:56;;;;;;;4.78;3.25;;;13.30;99.90;;;;;;4907919;29;22698;-68
2021/04/17 16:45:23;;;;;;;5.22;2.85;;;13.20;99.90;;;;;;4915284;29;20209;-68
2021/04/17 16:47:50;;;;;;;8.15;3.17;;;13.10;99.90;;;;;;4913673;29;20199;-68
2021/04/17 16:50:18;;;;;;;3.17;2.88;;;13.00;99.90;;;;;;4912113;29;20202;-68
2021/04/17 16:52:45;;;;;;;5.53;3.00;;;13.00;99.90;;;;;;4913426;29;20210;-69
2021/04/17 16:55:12;;;;;;;2.92;2.72;;;12.90;99.90;;;;;;4914409;29;20943;-69
2021/04/17 16:57:39;;;;;;;4.75;2.50;;;12.90;99.90;;;;;;4914061;29;20309;-68
2021/04/17 17:00:09;;;;;;;3.00;2.90;;;12.80;99.90;;;;;;4915035;29;20226;-68
2021/04/17 17:02:36;;;;;;;3.40;3.08;;;12.70;99.90;;;;;;4912185;29;20581;-68
2021/04/17 17:05:03;;;;;;;6.13;2.70;;;12.60;99.90;;;;;;4913505;29;20206;-69
2021/04/17 17:07:29;;;;;;;3.65;3.13;;;12.50;99.90;;;;;;4913378;29;20210;-69
2021/04/17 17:09:56;;;;;;;3.58;2.65;;;12.40;99.90;;;;;;4914231;29;20561;-69
2021/04/17 17:12:22;;;;;;;3.17;2.75;;;12.40;99.90;;;;;;4911313;29;20579;-68